Flugplatz Nabern/Teck

EDTN · 巴登-符腾堡, 德国

罗盘
风向 的 风向 220° Nabern/Teck Airport 14/32
风: 7 kt, 3 beaufort

1 kt

7 kt
改变
0 1.000 2.000 3.000 4.000 5.000
OVC 400 ft
SPECI EDJA 050420Z AUTO 22007KT 9000 // OVC004/// 01/01 Q1015

METAR Nabern/Teck Airport - EDTN

Nabern/Teck Airport是,德国中的小机场。 该机场有一条跑道: 14/32. 该领域的国际民航组织标志是EDTN.

这份报告是针对2022年12月5日 05:20, 当地时间在Memmingen Allgau Airport进行的。

机场观察

风向为220°,速度为7 kt。

可见度为9 km。

有乌云密布在400 ft的高度。 破损或更高的上限为400 ft。

温度为1 °C,阵风为-4 °C。 露点为1 °C,相对湿度为100%。 海平面上的气压为1015 hPa (QNH)。

白天

今天,太阳从07:57升起,在16:27降落。 这适用于Nabern/Teck Airport,世界夏令时可能有所不同。 当地时间与世界标准时间之间的时差为+1 小时。 当前,没有夏令时有效。

公司介绍

我们没有关于这个机场的公司信息。

体会

到Vliegles.nl去找飞行课程,跳伞和其他飞行体验。 浏览页面,了解Nabern/Teck Airport附近所有可用的活动。 你也可以使用搜索功能来寻找你所在地附近的特定飞行课程、跳伞或其他飞行体验。

跑道

Id 标题 侧风 逆风 侧风 %
14/32 135°-315° 7 kt 100 %

逆风成分最大的方向会被突出显示,并用于横风计算。 这并不一定意味着这个方向在使用。

乌云

400 ft OVC 乌云密布

温度 & 天气

温度 1 °C
露点 1 °C
相对湿度 100%
风寒 -4 °C
Kp-index 0 (0-9)

白天

日出
07:52 (2:05)
中午
12:09
日落
16:26

小工具

你想在你的网站上有一个关于Nabern/Teck Airport的当前航空天气(METAR)的小部件吗?

显示HTML代码

我们和第三方通过cookies跟踪您在我们网站上的互联网行为。如果你继续,我们认为你同意我们的饼干政策